sensor_id;sensor_type;location;lat;lon;timestamp;pressure;altitude;pressure_sealevel;temperature;humidity
74905;BME280;63465;50.862;6.220;2023-02-28T00:02:20;101198.44;;;-0.11;73.71
74905;BME280;63465;50.862;6.220;2023-02-28T00:04:47;101207.94;;;-0.16;73.62
74905;BME280;63465;50.862;6.220;2023-02-28T00:07:18;101206.00;;;-0.25;73.67
74905;BME280;63465;50.862;6.220;2023-02-28T00:09:45;101206.28;;;-0.11;73.77
74905;BME280;63465;50.862;6.220;2023-02-28T00:12:13;101203.63;;;-0.13;73.46
74905;BME280;63465;50.862;6.220;2023-02-28T00:14:40;101202.28;;;-0.38;73.72
74905;BME280;63465;50.862;6.220;2023-02-28T00:17:06;101212.00;;;-0.29;73.66
74905;BME280;63465;50.862;6.220;2023-02-28T00:19:33;101205.16;;;-0.24;73.55
74905;BME280;63465;50.862;6.220;2023-02-28T00:22:00;101211.56;;;-0.51;73.82
74905;BME280;63465;50.862;6.220;2023-02-28T00:24:26;101202.25;;;-0.40;73.40
74905;BME280;63465;50.862;6.220;2023-02-28T00:26:53;101211.66;;;-0.46;73.25
74905;BME280;63465;50.862;6.220;2023-02-28T00:29:21;101204.06;;;-0.36;73.19
74905;BME280;63465;50.862;6.220;2023-02-28T00:31:48;101196.13;;;-0.42;73.22
74905;BME280;63465;50.862;6.220;2023-02-28T00:34:15;101206.03;;;-0.66;73.64
74905;BME280;63465;50.862;6.220;2023-02-28T00:36:41;101203.03;;;-0.44;73.52
74905;BME280;63465;50.862;6.220;2023-02-28T00:39:11;101204.75;;;-0.46;73.25
74905;BME280;63465;50.862;6.220;2023-02-28T00:41:37;101199.25;;;-0.60;73.32
74905;BME280;63465;50.862;6.220;2023-02-28T00:44:06;101206.66;;;-0.78;74.07
74905;BME280;63465;50.862;6.220;2023-02-28T00:46:34;101209.56;;;-0.66;73.63
74905;BME280;63465;50.862;6.220;2023-02-28T00:49:01;101213.13;;;-0.61;73.87
74905;BME280;63465;50.862;6.220;2023-02-28T00:51:28;101212.34;;;-0.57;73.87
74905;BME280;63465;50.862;6.220;2023-02-28T00:53:56;101206.47;;;-0.45;73.63
74905;BME280;63465;50.862;6.220;2023-02-28T00:56:23;101203.91;;;-0.43;73.98
74905;BME280;63465;50.862;6.220;2023-02-28T00:58:50;101209.13;;;-0.43;73.81
74905;BME280;63465;50.862;6.220;2023-02-28T01:01:18;101200.44;;;-0.44;74.49
74905;BME280;63465;50.862;6.220;2023-02-28T01:03:46;101210.13;;;-0.38;73.89
74905;BME280;63465;50.862;6.220;2023-02-28T01:06:13;101214.28;;;-0.46;74.22
74905;BME280;63465;50.862;6.220;2023-02-28T01:08:40;101213.97;;;-0.62;74.86
74905;BME280;63465;50.862;6.220;2023-02-28T01:11:08;101213.00;;;-0.67;74.91
74905;BME280;63465;50.862;6.220;2023-02-28T01:13:35;101219.13;;;-0.63;75.00
74905;BME280;63465;50.862;6.220;2023-02-28T01:16:02;101218.97;;;-0.71;75.10
74905;BME280;63465;50.862;6.220;2023-02-28T01:18:29;101220.59;;;-0.78;75.26
74905;BME280;63465;50.862;6.220;2023-02-28T01:20:57;101218.94;;;-0.73;75.53
74905;BME280;63465;50.862;6.220;2023-02-28T01:23:24;101226.94;;;-0.65;75.05
74905;BME280;63465;50.862;6.220;2023-02-28T01:25:51;101220.41;;;-0.46;74.50
74905;BME280;63465;50.862;6.220;2023-02-28T01:28:17;101216.91;;;-0.45;74.01
74905;BME280;63465;50.862;6.220;2023-02-28T01:30:48;101221.34;;;-0.41;73.87
74905;BME280;63465;50.862;6.220;2023-02-28T01:33:14;101212.16;;;-0.66;74.52
74905;BME280;63465;50.862;6.220;2023-02-28T01:35:41;101220.84;;;-0.65;74.72
74905;BME280;63465;50.862;6.220;2023-02-28T01:38:09;101217.66;;;-0.52;74.71
74905;BME280;63465;50.862;6.220;2023-02-28T01:40:36;101216.34;;;-0.73;74.67
74905;BME280;63465;50.862;6.220;2023-02-28T01:43:05;101223.47;;;-0.65;74.73
74905;BME280;63465;50.862;6.220;2023-02-28T01:45:34;101218.19;;;-0.68;74.91
74905;BME280;63465;50.862;6.220;2023-02-28T01:48:05;101212.09;;;-0.67;74.80
74905;BME280;63465;50.862;6.220;2023-02-28T01:50:36;101215.31;;;-0.40;74.30
74905;BME280;63465;50.862;6.220;2023-02-28T01:53:07;101218.94;;;-0.73;74.84
74905;BME280;63465;50.862;6.220;2023-02-28T01:55:39;101214.63;;;-0.70;74.88
74905;BME280;63465;50.862;6.220;2023-02-28T01:58:08;101206.16;;;-0.60;74.99
74905;BME280;63465;50.862;6.220;2023-02-28T02:00:35;101196.22;;;-0.37;73.79
74905;BME280;63465;50.862;6.220;2023-02-28T02:03:06;101197.69;;;-0.50;73.80
74905;BME280;63465;50.862;6.220;2023-02-28T02:05:37;101200.22;;;-0.94;75.52
74905;BME280;63465;50.862;6.220;2023-02-28T02:08:08;101206.97;;;-1.04;75.94
74905;BME280;63465;50.862;6.220;2023-02-28T02:10:40;101196.38;;;-0.70;75.37
74905;BME280;63465;50.862;6.220;2023-02-28T02:13:22;101188.31;;;-0.83;74.88
74905;BME280;63465;50.862;6.220;2023-02-28T02:15:59;101190.94;;;-0.81;74.73
74905;BME280;63465;50.862;6.220;2023-02-28T02:18:32;101180.06;;;-1.03;75.36
74905;BME280;63465;50.862;6.220;2023-02-28T02:21:36;101186.31;;;-0.96;75.49
74905;BME280;63465;50.862;6.220;2023-02-28T02:27:39;101186.25;;;-0.99;75.48
74905;BME280;63465;50.862;6.220;2023-02-28T02:30:48;101185.97;;;-1.12;75.86
74905;BME280;63465;50.862;6.220;2023-02-28T02:33:33;101184.31;;;-1.08;75.73
74905;BME280;63465;50.862;6.220;2023-02-28T02:36:13;101180.09;;;-1.01;75.07
74905;BME280;63465;50.862;6.220;2023-02-28T02:38:48;101181.69;;;-1.08;75.56
74905;BME280;63465;50.862;6.220;2023-02-28T02:41:20;101186.84;;;-1.11;75.28
74905;BME280;63465;50.862;6.220;2023-02-28T02:43:52;101181.78;;;-1.03;75.54
74905;BME280;63465;50.862;6.220;2023-02-28T02:46:24;101183.31;;;-1.13;75.97
74905;BME280;63465;50.862;6.220;2023-02-28T02:48:54;101189.41;;;-1.13;75.76
74905;BME280;63465;50.862;6.220;2023-02-28T02:51:24;101183.25;;;-1.16;75.89
74905;BME280;63465;50.862;6.220;2023-02-28T02:53:54;101180.00;;;-1.06;75.80
74905;BME280;63465;50.862;6.220;2023-02-28T02:56:24;101175.81;;;-0.99;75.54
74905;BME280;63465;50.862;6.220;2023-02-28T02:58:54;101178.34;;;-1.02;75.28
74905;BME280;63465;50.862;6.220;2023-02-28T03:01:24;101181.91;;;-0.99;74.96
74905;BME280;63465;50.862;6.220;2023-02-28T03:03:56;101178.75;;;-0.84;74.95
74905;BME280;63465;50.862;6.220;2023-02-28T03:06:25;101182.16;;;-0.86;74.56
74905;BME280;63465;50.862;6.220;2023-02-28T03:08:53;101170.03;;;-0.84;74.84
74905;BME280;63465;50.862;6.220;2023-02-28T03:11:21;101169.91;;;-0.91;74.82
74905;BME280;63465;50.862;6.220;2023-02-28T03:13:55;101166.69;;;-0.79;74.79
74905;BME280;63465;50.862;6.220;2023-02-28T03:16:34;101165.13;;;-0.69;74.20
74905;BME280;63465;50.862;6.220;2023-02-28T03:19:21;101169.03;;;-0.91;74.44
74905;BME280;63465;50.862;6.220;2023-02-28T03:22:00;101169.16;;;-0.85;74.55
74905;BME280;63465;50.862;6.220;2023-02-28T03:24:34;101160.75;;;-0.72;74.42
74905;BME280;63465;50.862;6.220;2023-02-28T03:27:08;101162.66;;;-0.64;73.68
74905;BME280;63465;50.862;6.220;2023-02-28T03:29:39;101164.84;;;-0.83;74.53
74905;BME280;63465;50.862;6.220;2023-02-28T03:32:14;101169.88;;;-0.92;74.94
74905;BME280;63465;50.862;6.220;2023-02-28T03:34:50;101172.91;;;-1.13;75.78
74905;BME280;63465;50.862;6.220;2023-02-28T03:37:23;101173.91;;;-1.45;77.22
74905;BME280;63465;50.862;6.220;2023-02-28T03:39:56;101186.13;;;-1.42;77.33
74905;BME280;63465;50.862;6.220;2023-02-28T03:42:27;101172.38;;;-1.35;76.79
74905;BME280;63465;50.862;6.220;2023-02-28T03:44:57;101182.31;;;-1.18;76.54
74905;BME280;63465;50.862;6.220;2023-02-28T03:47:28;101178.91;;;-1.16;76.18
74905;BME280;63465;50.862;6.220;2023-02-28T03:49:59;101177.34;;;-1.08;75.53
74905;BME280;63465;50.862;6.220;2023-02-28T03:52:31;101172.28;;;-1.01;76.11
74905;BME280;63465;50.862;6.220;2023-02-28T03:55:02;101167.00;;;-1.04;75.81
74905;BME280;63465;50.862;6.220;2023-02-28T03:57:35;101172.09;;;-1.09;76.31
74905;BME280;63465;50.862;6.220;2023-02-28T04:00:07;101169.34;;;-1.17;76.57
74905;BME280;63465;50.862;6.220;2023-02-28T04:02:40;101167.00;;;-1.04;76.46
74905;BME280;63465;50.862;6.220;2023-02-28T04:05:07;101169.78;;;-0.97;75.74
74905;BME280;63465;50.862;6.220;2023-02-28T04:07:36;101172.53;;;-0.89;75.26
74905;BME280;63465;50.862;6.220;2023-02-28T04:10:04;101176.22;;;-0.81;74.90
74905;BME280;63465;50.862;6.220;2023-02-28T04:12:30;101174.06;;;-0.99;75.30
74905;BME280;63465;50.862;6.220;2023-02-28T04:14:57;101178.03;;;-1.16;75.90
74905;BME280;63465;50.862;6.220;2023-02-28T04:17:24;101179.75;;;-1.17;76.02
74905;BME280;63465;50.862;6.220;2023-02-28T04:19:51;101178.56;;;-1.31;76.72
74905;BME280;63465;50.862;6.220;2023-02-28T04:22:19;101179.22;;;-1.40;76.71
74905;BME280;63465;50.862;6.220;2023-02-28T04:24:48;101187.78;;;-1.44;76.78
74905;BME280;63465;50.862;6.220;2023-02-28T04:27:15;101184.94;;;-1.55;76.94
74905;BME280;63465;50.862;6.220;2023-02-28T04:29:42;101184.03;;;-1.20;76.09
74905;BME280;63465;50.862;6.220;2023-02-28T04:32:10;101182.22;;;-1.23;76.89
74905;BME280;63465;50.862;6.220;2023-02-28T04:34:37;101187.25;;;-1.31;76.81
74905;BME280;63465;50.862;6.220;2023-02-28T04:37:04;101179.75;;;-1.17;76.88
74905;BME280;63465;50.862;6.220;2023-02-28T04:39:35;101190.44;;;-1.42;77.62
74905;BME280;63465;50.862;6.220;2023-02-28T04:42:03;101193.75;;;-1.50;77.69
74905;BME280;63465;50.862;6.220;2023-02-28T04:44:30;101187.53;;;-1.55;77.77
74905;BME280;63465;50.862;6.220;2023-02-28T04:46:57;101193.22;;;-1.71;78.40
74905;BME280;63465;50.862;6.220;2023-02-28T04:49:24;101195.63;;;-1.79;78.57
74905;BME280;63465;50.862;6.220;2023-02-28T04:51:50;101182.63;;;-1.79;78.78
74905;BME280;63465;50.862;6.220;2023-02-28T04:54:18;101199.69;;;-1.89;78.91
74905;BME280;63465;50.862;6.220;2023-02-28T04:56:45;101196.22;;;-1.89;79.16
74905;BME280;63465;50.862;6.220;2023-02-28T04:59:15;101204.81;;;-1.92;78.94
74905;BME280;63465;50.862;6.220;2023-02-28T05:01:45;101205.38;;;-2.04;79.84
74905;BME280;63465;50.862;6.220;2023-02-28T05:04:12;101207.03;;;-2.07;79.94
74905;BME280;63465;50.862;6.220;2023-02-28T05:06:39;101215.56;;;-2.11;79.63
74905;BME280;63465;50.862;6.220;2023-02-28T05:09:06;101206.94;;;-2.10;79.52
74905;BME280;63465;50.862;6.220;2023-02-28T05:11:34;101201.38;;;-2.24;79.88
74905;BME280;63465;50.862;6.220;2023-02-28T05:14:01;101208.47;;;-2.19;80.16
74905;BME280;63465;50.862;6.220;2023-02-28T05:16:30;101209.22;;;-2.23;81.02
74905;BME280;63465;50.862;6.220;2023-02-28T05:18:57;101203.50;;;-2.09;80.41
74905;BME280;63465;50.862;6.220;2023-02-28T05:21:28;101200.75;;;-2.16;81.41
74905;BME280;63465;50.862;6.220;2023-02-28T05:23:56;101201.00;;;-2.06;80.89
74905;BME280;63465;50.862;6.220;2023-02-28T05:26:23;101202.78;;;-2.04;80.83
74905;BME280;63465;50.862;6.220;2023-02-28T05:28:51;101204.34;;;-2.10;80.92
74905;BME280;63465;50.862;6.220;2023-02-28T05:31:17;101206.16;;;-2.08;80.63
74905;BME280;63465;50.862;6.220;2023-02-28T05:33:45;101203.13;;;-2.23;81.45
74905;BME280;63465;50.862;6.220;2023-02-28T05:36:12;101210.25;;;-2.16;81.22
74905;BME280;63465;50.862;6.220;2023-02-28T05:38:39;101207.13;;;-2.35;82.12
74905;BME280;63465;50.862;6.220;2023-02-28T05:41:07;101202.09;;;-2.28;81.70
74905;BME280;63465;50.862;6.220;2023-02-28T05:43:34;101203.84;;;-2.29;82.84
74905;BME280;63465;50.862;6.220;2023-02-28T05:46:02;101207.53;;;-2.21;82.06
74905;BME280;63465;50.862;6.220;2023-02-28T05:48:29;101203.34;;;-2.16;81.75
74905;BME280;63465;50.862;6.220;2023-02-28T05:50:58;101208.75;;;-2.08;82.26
74905;BME280;63465;50.862;6.220;2023-02-28T05:53:25;101203.44;;;-2.12;81.89
74905;BME280;63465;50.862;6.220;2023-02-28T05:55:52;101205.28;;;-2.07;81.48
74905;BME280;63465;50.862;6.220;2023-02-28T05:58:19;101205.03;;;-2.16;82.26
74905;BME280;63465;50.862;6.220;2023-02-28T06:00:45;101198.06;;;-2.19;82.14
74905;BME280;63465;50.862;6.220;2023-02-28T06:03:12;101198.88;;;-2.20;82.84
74905;BME280;63465;50.862;6.220;2023-02-28T06:05:39;101205.75;;;-2.23;82.70
74905;BME280;63465;50.862;6.220;2023-02-28T06:08:07;101206.66;;;-2.21;82.18
74905;BME280;63465;50.862;6.220;2023-02-28T06:10:34;101205.88;;;-2.19;82.04
74905;BME280;63465;50.862;6.220;2023-02-28T06:13:01;101210.41;;;-2.10;81.67
74905;BME280;63465;50.862;6.220;2023-02-28T06:15:29;101211.53;;;-2.02;81.57
74905;BME280;63465;50.862;6.220;2023-02-28T06:17:56;101215.56;;;-2.11;81.52
74905;BME280;63465;50.862;6.220;2023-02-28T06:20:24;101213.22;;;-2.02;81.40
74905;BME280;63465;50.862;6.220;2023-02-28T06:22:51;101214.19;;;-1.99;80.95
74905;BME280;63465;50.862;6.220;2023-02-28T06:25:21;101218.28;;;-1.75;80.55
74905;BME280;63465;50.862;6.220;2023-02-28T06:27:48;101221.66;;;-1.79;80.26
74905;BME280;63465;50.862;6.220;2023-02-28T06:30:15;101212.59;;;-1.93;80.11
74905;BME280;63465;50.862;6.220;2023-02-28T06:32:42;101221.22;;;-1.96;80.44
74905;BME280;63465;50.862;6.220;2023-02-28T06:35:08;101223.94;;;-1.91;79.66
74905;BME280;63465;50.862;6.220;2023-02-28T06:37:35;101222.88;;;-1.98;79.90
74905;BME280;63465;50.862;6.220;2023-02-28T06:40:03;101223.44;;;-1.76;79.64
74905;BME280;63465;50.862;6.220;2023-02-28T06:42:33;101229.94;;;-1.60;78.68
74905;BME280;63465;50.862;6.220;2023-02-28T06:45:01;101229.50;;;-1.77;78.16
74905;BME280;63465;50.862;6.220;2023-02-28T06:47:34;101238.25;;;-1.74;78.26
74905;BME280;63465;50.862;6.220;2023-02-28T06:50:02;101239.66;;;-1.87;78.43
74905;BME280;63465;50.862;6.220;2023-02-28T06:52:29;101243.47;;;-2.06;78.76
74905;BME280;63465;50.862;6.220;2023-02-28T06:54:56;101240.91;;;-2.04;78.75
74905;BME280;63465;50.862;6.220;2023-02-28T06:57:28;101247.91;;;-2.03;78.82
74905;BME280;63465;50.862;6.220;2023-02-28T06:59:58;101254.34;;;-1.89;78.30
74905;BME280;63465;50.862;6.220;2023-02-28T07:02:24;101257.81;;;-1.90;78.24
74905;BME280;63465;50.862;6.220;2023-02-28T07:04:51;101252.41;;;-1.98;78.62
74905;BME280;63465;50.862;6.220;2023-02-28T07:07:18;101255.78;;;-2.00;79.03
74905;BME280;63465;50.862;6.220;2023-02-28T07:09:44;101252.31;;;-1.99;79.08
74905;BME280;63465;50.862;6.220;2023-02-28T07:12:11;101259.34;;;-1.97;78.59
74905;BME280;63465;50.862;6.220;2023-02-28T07:14:38;101256.91;;;-1.90;78.58
74905;BME280;63465;50.862;6.220;2023-02-28T07:17:07;101257.03;;;-1.86;78.21
74905;BME280;63465;50.862;6.220;2023-02-28T07:19:34;101267.59;;;-1.80;78.82
74905;BME280;63465;50.862;6.220;2023-02-28T07:22:01;101256.31;;;-1.80;78.63
74905;BME280;63465;50.862;6.220;2023-02-28T07:24:28;101265.16;;;-1.73;78.03
74905;BME280;63465;50.862;6.220;2023-02-28T07:26:55;101263.56;;;-1.68;78.19
74905;BME280;63465;50.862;6.220;2023-02-28T07:29:22;101262.06;;;-1.58;76.93
74905;BME280;63465;50.862;6.220;2023-02-28T07:31:48;101266.50;;;-1.56;77.53
74905;BME280;63465;50.862;6.220;2023-02-28T07:34:17;101261.38;;;-1.53;77.38
74905;BME280;63465;50.862;6.220;2023-02-28T07:36:44;101264.75;;;-1.55;77.41
74905;BME280;63465;50.862;6.220;2023-02-28T07:39:11;101263.19;;;-1.49;76.71
74905;BME280;63465;50.862;6.220;2023-02-28T07:41:37;101266.97;;;-1.37;75.67
74905;BME280;63465;50.862;6.220;2023-02-28T07:44:08;101256.56;;;-1.36;75.99
74905;BME280;63465;50.862;6.220;2023-02-28T07:46:35;101259.22;;;-1.34;76.30
74905;BME280;63465;50.862;6.220;2023-02-28T07:49:02;101263.78;;;-1.26;75.36
74905;BME280;63465;50.862;6.220;2023-02-28T07:51:31;101260.34;;;-1.23;76.05
74905;BME280;63465;50.862;6.220;2023-02-28T07:53:57;101264.84;;;-1.17;76.16
74905;BME280;63465;50.862;6.220;2023-02-28T07:56:24;101263.22;;;-1.12;75.55
74905;BME280;63465;50.862;6.220;2023-02-28T07:58:51;101262.50;;;-1.06;76.00
74905;BME280;63465;50.862;6.220;2023-02-28T08:01:18;101260.97;;;-0.97;74.47
74905;BME280;63465;50.862;6.220;2023-02-28T08:03:45;101265.31;;;-0.97;74.76
74905;BME280;63465;50.862;6.220;2023-02-28T08:06:16;101266.34;;;-0.89;73.87
74905;BME280;63465;50.862;6.220;2023-02-28T08:08:45;101276.88;;;-0.84;74.29
74905;BME280;63465;50.862;6.220;2023-02-28T08:11:12;101263.09;;;-0.80;74.82
74905;BME280;63465;50.862;6.220;2023-02-28T08:13:39;101265.88;;;-0.73;73.79
74905;BME280;63465;50.862;6.220;2023-02-28T08:16:07;101255.56;;;-0.66;73.29
74905;BME280;63465;50.862;6.220;2023-02-28T08:18:34;101267.19;;;-0.52;72.48
74905;BME280;63465;50.862;6.220;2023-02-28T08:21:06;101269.91;;;-0.47;73.18
74905;BME280;63465;50.862;6.220;2023-02-28T08:23:32;101264.84;;;-0.40;71.21
74905;BME280;63465;50.862;6.220;2023-02-28T08:26:02;101260.53;;;-0.38;70.19
74905;BME280;63465;50.862;6.220;2023-02-28T08:28:29;101265.94;;;-0.28;68.78
74905;BME280;63465;50.862;6.220;2023-02-28T08:30:56;101265.25;;;-0.20;68.97
74905;BME280;63465;50.862;6.220;2023-02-28T08:33:24;101261.94;;;-0.11;69.36
74905;BME280;63465;50.862;6.220;2023-02-28T08:35:52;101264.50;;;-0.12;68.59
74905;BME280;63465;50.862;6.220;2023-02-28T08:38:20;101265.72;;;0.04;67.33
74905;BME280;63465;50.862;6.220;2023-02-28T08:40:46;101268.53;;;0.14;67.48
74905;BME280;63465;50.862;6.220;2023-02-28T08:43:14;101270.38;;;0.20;67.50
74905;BME280;63465;50.862;6.220;2023-02-28T08:45:41;101271.22;;;0.19;66.13
74905;BME280;63465;50.862;6.220;2023-02-28T08:48:08;101267.00;;;0.27;64.24
74905;BME280;63465;50.862;6.220;2023-02-28T08:50:35;101262.06;;;0.43;63.85
74905;BME280;63465;50.862;6.220;2023-02-28T08:53:01;101258.06;;;0.62;64.59
74905;BME280;63465;50.862;6.220;2023-02-28T08:55:28;101261.06;;;0.86;63.87
74905;BME280;63465;50.862;6.220;2023-02-28T08:57:55;101260.94;;;0.79;61.88
74905;BME280;63465;50.862;6.220;2023-02-28T09:00:23;101262.84;;;0.87;62.02
74905;BME280;63465;50.862;6.220;2023-02-28T09:02:50;101265.91;;;1.18;58.16
74905;BME280;63465;50.862;6.220;2023-02-28T09:05:17;101265.09;;;1.24;58.03
74905;BME280;63465;50.862;6.220;2023-02-28T09:07:43;101266.06;;;1.28;59.48
74905;BME280;63465;50.862;6.220;2023-02-28T09:10:10;101268.59;;;1.23;59.12
74905;BME280;63465;50.862;6.220;2023-02-28T09:12:38;101260.16;;;1.42;56.92
74905;BME280;63465;50.862;6.220;2023-02-28T09:15:05;101265.16;;;1.27;56.73
74905;BME280;63465;50.862;6.220;2023-02-28T09:17:34;101260.91;;;1.34;56.57
74905;BME280;63465;50.862;6.220;2023-02-28T09:20:00;101256.38;;;1.22;56.86
74905;BME280;63465;50.862;6.220;2023-02-28T09:22:27;101253.13;;;1.38;55.95
74905;BME280;63465;50.862;6.220;2023-02-28T09:24:54;101260.09;;;1.36;54.71
74905;BME280;63465;50.862;6.220;2023-02-28T09:27:20;101253.13;;;1.38;54.73
74905;BME280;63465;50.862;6.220;2023-02-28T09:29:47;101254.97;;;1.46;54.49
74905;BME280;63465;50.862;6.220;2023-02-28T09:32:14;101250.72;;;1.54;54.92
74905;BME280;63465;50.862;6.220;2023-02-28T09:34:42;101250.78;;;1.58;54.27
74905;BME280;63465;50.862;6.220;2023-02-28T09:37:09;101246.38;;;1.56;53.37
74905;BME280;63465;50.862;6.220;2023-02-28T09:39:35;101238.06;;;1.91;51.93
74905;BME280;63465;50.862;6.220;2023-02-28T09:42:03;101245.50;;;1.57;52.44
74905;BME280;63465;50.862;6.220;2023-02-28T09:44:35;101247.28;;;1.58;52.81
74905;BME280;63465;50.862;6.220;2023-02-28T09:47:08;101243.97;;;1.74;52.87
74905;BME280;63465;50.862;6.220;2023-02-28T09:49:42;101245.81;;;1.82;52.89
74905;BME280;63465;50.862;6.220;2023-02-28T09:52:14;101246.69;;;1.84;49.81
74905;BME280;63465;50.862;6.220;2023-02-28T09:54:43;101241.75;;;2.08;49.52
74905;BME280;63465;50.862;6.220;2023-02-28T09:57:17;101243.63;;;2.22;50.61
74905;BME280;63465;50.862;6.220;2023-02-28T09:59:57;101245.34;;;2.17;50.02
74905;BME280;63465;50.862;6.220;2023-02-28T10:02:54;101234.13;;;3.54;45.62
74905;BME280;63465;50.862;6.220;2023-02-28T10:05:29;101239.78;;;2.79;47.01
74905;BME280;63465;50.862;6.220;2023-02-28T10:08:03;101237.53;;;3.38;43.84
74905;BME280;63465;50.862;6.220;2023-02-28T10:10:38;101244.50;;;3.30;44.12
74905;BME280;63465;50.862;6.220;2023-02-28T10:13:13;101242.19;;;4.15;42.67
74905;BME280;63465;50.862;6.220;2023-02-28T10:15:42;101248.13;;;3.60;42.17
74905;BME280;63465;50.862;6.220;2023-02-28T10:18:14;101232.44;;;3.72;42.81
74905;BME280;63465;50.862;6.220;2023-02-28T10:20:44;101248.34;;;4.12;40.79
74905;BME280;63465;50.862;6.220;2023-02-28T10:23:17;101250.00;;;2.47;43.42
74905;BME280;63465;50.862;6.220;2023-02-28T10:25:50;101257.00;;;2.53;44.18
74905;BME280;63465;50.862;6.220;2023-02-28T10:28:19;101250.94;;;2.57;45.63
74905;BME280;63465;50.862;6.220;2023-02-28T10:30:48;101240.53;;;4.55;40.61
74905;BME280;63465;50.862;6.220;2023-02-28T10:33:22;101237.81;;;5.25;37.05
74905;BME280;63465;50.862;6.220;2023-02-28T10:35:50;101230.00;;;4.49;37.62
74905;BME280;63465;50.862;6.220;2023-02-28T10:40:47;101235.91;;;5.79;37.27
74905;BME280;63465;50.862;6.220;2023-02-28T10:43:19;101227.03;;;5.94;35.60
74905;BME280;63465;50.862;6.220;2023-02-28T10:45:56;101236.56;;;6.18;36.45
74905;BME280;63465;50.862;6.220;2023-02-28T10:48:29;101227.63;;;8.68;31.05
74905;BME280;63465;50.862;6.220;2023-02-28T10:50:58;101228.31;;;6.71;33.03
74905;BME280;63465;50.862;6.220;2023-02-28T10:53:34;101227.66;;;6.41;35.45
74905;BME280;63465;50.862;6.220;2023-02-28T10:56:03;101216.56;;;8.43;33.67
74905;BME280;63465;50.862;6.220;2023-02-28T10:58:40;101218.88;;;8.03;32.37
74905;BME280;63465;50.862;6.220;2023-02-28T11:01:13;101218.16;;;7.94;31.58
74905;BME280;63465;50.862;6.220;2023-02-28T11:03:41;101217.50;;;6.99;33.24
74905;BME280;63465;50.862;6.220;2023-02-28T11:06:15;101208.69;;;6.98;33.36
74905;BME280;63465;50.862;6.220;2023-02-28T11:08:50;101201.63;;;9.40;31.06
74905;BME280;63465;50.862;6.220;2023-02-28T11:11:18;101204.59;;;7.50;31.98
74905;BME280;63465;50.862;6.220;2023-02-28T11:13:47;101207.34;;;7.41;31.37
74905;BME280;63465;50.862;6.220;2023-02-28T11:16:16;101218.19;;;6.09;34.72
74905;BME280;63465;50.862;6.220;2023-02-28T11:18:48;101206.34;;;7.53;33.03
74905;BME280;63465;50.862;6.220;2023-02-28T11:21:19;101197.56;;;9.66;28.70
74905;BME280;63465;50.862;6.220;2023-02-28T11:23:49;101197.34;;;10.15;27.96
74905;BME280;63465;50.862;6.220;2023-02-28T11:26:36;101199.94;;;8.89;28.92
74905;BME280;63465;50.862;6.220;2023-02-28T11:29:11;101215.00;;;5.38;35.70
74905;BME280;63465;50.862;6.220;2023-02-28T11:31:38;101216.53;;;5.85;35.71
74905;BME280;63465;50.862;6.220;2023-02-28T11:34:23;101194.72;;;8.84;30.81
74905;BME280;63465;50.862;6.220;2023-02-28T11:36:53;101199.94;;;8.89;30.75
74905;BME280;63465;50.862;6.220;2023-02-28T11:39:22;101191.72;;;8.53;30.25
74905;BME280;63465;50.862;6.220;2023-02-28T11:42:06;101200.72;;;5.86;37.17
74905;BME280;63465;50.862;6.220;2023-02-28T11:44:47;101214.22;;;4.60;37.92
74905;BME280;63465;50.862;6.220;2023-02-28T11:47:28;101208.78;;;5.52;36.71
74905;BME280;63465;50.862;6.220;2023-02-28T11:50:08;101213.50;;;6.51;34.73
74905;BME280;63465;50.862;6.220;2023-02-28T11:52:45;101197.78;;;7.32;32.03
74905;BME280;63465;50.862;6.220;2023-02-28T11:55:18;101196.06;;;7.28;31.98
74905;BME280;63465;50.862;6.220;2023-02-28T11:57:58;101192.84;;;6.98;32.37
74905;BME280;63465;50.862;6.220;2023-02-28T12:00:45;101200.69;;;7.82;32.56
74905;BME280;63465;50.862;6.220;2023-02-28T12:03:26;101191.56;;;8.04;32.43
74905;BME280;63465;50.862;6.220;2023-02-28T12:06:01;101190.66;;;7.39;32.26
74905;BME280;63465;50.862;6.220;2023-02-28T12:08:45;101181.38;;;7.04;36.13
74905;BME280;63465;50.862;6.220;2023-02-28T12:11:19;101197.25;;;5.80;37.54
74905;BME280;63465;50.862;6.220;2023-02-28T12:14:06;101194.47;;;6.11;36.84
74905;BME280;63465;50.862;6.220;2023-02-28T12:16:58;101186.94;;;7.57;34.26
74905;BME280;63465;50.862;6.220;2023-02-28T12:19:35;101184.31;;;9.23;29.52
74905;BME280;63465;50.862;6.220;2023-02-28T12:22:19;101193.97;;;6.75;34.08
74905;BME280;63465;50.862;6.220;2023-02-28T12:27:51;101178.13;;;8.76;29.54
74905;BME280;63465;50.862;6.220;2023-02-28T12:30:22;101177.06;;;8.85;30.07
74905;BME280;63465;50.862;6.220;2023-02-28T12:32:52;101172.78;;;9.68;30.04
74905;BME280;63465;50.862;6.220;2023-02-28T12:35:25;101171.50;;;7.20;33.64
74905;BME280;63465;50.862;6.220;2023-02-28T12:37:56;101157.69;;;10.83;28.97
74905;BME280;63465;50.862;6.220;2023-02-28T12:40:27;101162.09;;;10.10;27.68
74905;BME280;63465;50.862;6.220;2023-02-28T12:42:58;101166.09;;;7.32;32.64
74905;BME280;63465;50.862;6.220;2023-02-28T12:45:40;101161.06;;;8.39;31.66
74905;BME280;63465;50.862;6.220;2023-02-28T12:48:12;101158.59;;;8.80;30.73
74905;BME280;63465;50.862;6.220;2023-02-28T12:50:40;101158.53;;;9.72;28.69
74905;BME280;63465;50.862;6.220;2023-02-28T12:53:11;101156.00;;;8.26;32.27
74905;BME280;63465;50.862;6.220;2023-02-28T12:55:45;101152.84;;;9.05;30.84
74905;BME280;63465;50.862;6.220;2023-02-28T12:58:22;101157.16;;;7.42;34.46
74905;BME280;63465;50.862;6.220;2023-02-28T13:01:21;101152.16;;;6.28;36.10
74905;BME280;63465;50.862;6.220;2023-02-28T13:04:24;101154.31;;;5.62;38.70
74905;BME280;63465;50.862;6.220;2023-02-28T13:07:08;101150.84;;;5.54;39.53
74905;BME280;63465;50.862;6.220;2023-02-28T13:09:40;101148.38;;;5.14;38.79
74905;BME280;63465;50.862;6.220;2023-02-28T13:12:13;101137.81;;;5.20;38.51
74905;BME280;63465;50.862;6.220;2023-02-28T13:14:42;101136.94;;;5.21;44.05
74905;BME280;63465;50.862;6.220;2023-02-28T13:17:14;101142.34;;;4.82;43.32
74905;BME280;63465;50.862;6.220;2023-02-28T13:19:45;101142.31;;;4.95;42.71